sensor_id;sensor_type;location;lat;lon;timestamp;P1;durP1;ratioP1;P2;durP2;ratioP2
7497;SDS011;3790;48.806;9.140;2023-02-15T00:04:05;30.87;;;24.13;;
7497;SDS011;3790;48.806;9.140;2023-02-15T00:09:06;39.93;;;26.77;;
7497;SDS011;3790;48.806;9.140;2023-02-15T00:14:16;37.63;;;25.00;;
7497;SDS011;3790;48.806;9.140;2023-02-15T00:19:23;38.60;;;25.80;;
7497;SDS011;3790;48.806;9.140;2023-02-15T00:24:23;34.70;;;25.03;;
7497;SDS011;3790;48.806;9.140;2023-02-15T00:29:24;33.00;;;24.43;;
7497;SDS011;3790;48.806;9.140;2023-02-15T00:34:25;33.03;;;23.97;;
7497;SDS011;3790;48.806;9.140;2023-02-15T00:39:27;34.40;;;24.17;;
7497;SDS011;3790;48.806;9.140;2023-02-15T00:44:28;39.47;;;25.30;;
7497;SDS011;3790;48.806;9.140;2023-02-15T00:49:29;27.73;;;23.40;;
7497;SDS011;3790;48.806;9.140;2023-02-15T00:54:29;30.30;;;24.67;;
7497;SDS011;3790;48.806;9.140;2023-02-15T00:59:30;30.70;;;24.17;;
7497;SDS011;3790;48.806;9.140;2023-02-15T01:04:30;25.53;;;21.67;;
7497;SDS011;3790;48.806;9.140;2023-02-15T01:09:31;29.40;;;22.00;;
7497;SDS011;3790;48.806;9.140;2023-02-15T01:14:31;26.80;;;21.83;;
7497;SDS011;3790;48.806;9.140;2023-02-15T01:19:32;31.93;;;22.20;;
7497;SDS011;3790;48.806;9.140;2023-02-15T01:24:33;32.13;;;24.10;;
7497;SDS011;3790;48.806;9.140;2023-02-15T01:29:33;35.00;;;23.30;;
7497;SDS011;3790;48.806;9.140;2023-02-15T01:34:34;38.20;;;25.93;;
7497;SDS011;3790;48.806;9.140;2023-02-15T01:39:34;39.73;;;28.67;;
7497;SDS011;3790;48.806;9.140;2023-02-15T01:50:00;33.47;;;22.50;;
7497;SDS011;3790;48.806;9.140;2023-02-15T01:55:08;30.90;;;22.70;;
7497;SDS011;3790;48.806;9.140;2023-02-15T02:00:09;30.33;;;21.93;;
7497;SDS011;3790;48.806;9.140;2023-02-15T02:05:12;30.80;;;22.33;;
7497;SDS011;3790;48.806;9.140;2023-02-15T02:10:14;32.90;;;23.83;;
7497;SDS011;3790;48.806;9.140;2023-02-15T02:15:16;31.60;;;24.40;;
7497;SDS011;3790;48.806;9.140;2023-02-15T02:20:28;43.33;;;24.63;;
7497;SDS011;3790;48.806;9.140;2023-02-15T02:37:16;35.47;;;24.70;;
7497;SDS011;3790;48.806;9.140;2023-02-15T02:42:30;33.97;;;25.17;;
7497;SDS011;3790;48.806;9.140;2023-02-15T02:47:50;32.27;;;24.50;;
7497;SDS011;3790;48.806;9.140;2023-02-15T02:53:14;38.30;;;27.33;;
7497;SDS011;3790;48.806;9.140;2023-02-15T03:03:28;44.50;;;28.63;;
7497;SDS011;3790;48.806;9.140;2023-02-15T03:08:37;39.33;;;28.73;;
7497;SDS011;3790;48.806;9.140;2023-02-15T03:13:43;38.23;;;26.57;;
7497;SDS011;3790;48.806;9.140;2023-02-15T03:18:46;50.03;;;28.60;;
7497;SDS011;3790;48.806;9.140;2023-02-15T03:23:58;43.33;;;25.67;;
7497;SDS011;3790;48.806;9.140;2023-02-15T03:29:07;32.47;;;23.67;;
7497;SDS011;3790;48.806;9.140;2023-02-15T03:34:11;34.53;;;27.23;;
7497;SDS011;3790;48.806;9.140;2023-02-15T03:44:27;40.07;;;27.70;;
7497;SDS011;3790;48.806;9.140;2023-02-15T03:54:45;42.20;;;27.77;;
7497;SDS011;3790;48.806;9.140;2023-02-15T03:59:46;49.13;;;29.93;;
7497;SDS011;3790;48.806;9.140;2023-02-15T04:05:05;47.63;;;29.13;;
7497;SDS011;3790;48.806;9.140;2023-02-15T04:10:06;50.70;;;30.47;;
7497;SDS011;3790;48.806;9.140;2023-02-15T04:15:25;190.20;;;40.20;;
7497;SDS011;3790;48.806;9.140;2023-02-15T04:20:44;223.73;;;46.70;;
7497;SDS011;3790;48.806;9.140;2023-02-15T04:26:04;79.53;;;31.70;;
7497;SDS011;3790;48.806;9.140;2023-02-15T04:31:05;181.97;;;41.20;;
7497;SDS011;3790;48.806;9.140;2023-02-15T04:36:05;44.40;;;30.07;;
7497;SDS011;3790;48.806;9.140;2023-02-15T04:41:06;64.63;;;28.43;;
7497;SDS011;3790;48.806;9.140;2023-02-15T04:46:06;77.93;;;28.67;;
7497;SDS011;3790;48.806;9.140;2023-02-15T04:51:07;65.00;;;30.20;;
7497;SDS011;3790;48.806;9.140;2023-02-15T04:56:09;116.93;;;36.37;;
7497;SDS011;3790;48.806;9.140;2023-02-15T05:01:10;68.90;;;30.07;;
7497;SDS011;3790;48.806;9.140;2023-02-15T05:06:10;44.23;;;28.23;;
7497;SDS011;3790;48.806;9.140;2023-02-15T05:11:11;56.83;;;30.83;;
7497;SDS011;3790;48.806;9.140;2023-02-15T05:16:12;49.23;;;30.03;;
7497;SDS011;3790;48.806;9.140;2023-02-15T05:21:12;91.70;;;32.07;;
7497;SDS011;3790;48.806;9.140;2023-02-15T05:26:17;58.00;;;31.63;;
7497;SDS011;3790;48.806;9.140;2023-02-15T05:31:37;162.53;;;33.97;;
7497;SDS011;3790;48.806;9.140;2023-02-15T05:36:38;46.40;;;29.23;;
7497;SDS011;3790;48.806;9.140;2023-02-15T05:41:38;43.70;;;28.53;;
7497;SDS011;3790;48.806;9.140;2023-02-15T05:46:39;151.37;;;30.10;;
7497;SDS011;3790;48.806;9.140;2023-02-15T05:51:39;183.27;;;29.93;;
7497;SDS011;3790;48.806;9.140;2023-02-15T05:56:40;122.37;;;30.80;;
7497;SDS011;3790;48.806;9.140;2023-02-15T06:01:40;71.83;;;26.30;;
7497;SDS011;3790;48.806;9.140;2023-02-15T06:06:41;167.70;;;29.27;;
7497;SDS011;3790;48.806;9.140;2023-02-15T06:11:41;35.13;;;22.23;;
7497;SDS011;3790;48.806;9.140;2023-02-15T06:16:42;28.37;;;19.73;;
7497;SDS011;3790;48.806;9.140;2023-02-15T06:21:44;27.10;;;18.60;;
7497;SDS011;3790;48.806;9.140;2023-02-15T06:26:44;29.20;;;19.10;;
7497;SDS011;3790;48.806;9.140;2023-02-15T06:31:45;24.97;;;17.13;;
7497;SDS011;3790;48.806;9.140;2023-02-15T06:36:45;26.63;;;16.47;;
7497;SDS011;3790;48.806;9.140;2023-02-15T06:41:46;29.60;;;17.83;;
7497;SDS011;3790;48.806;9.140;2023-02-15T06:46:46;27.47;;;16.80;;
7497;SDS011;3790;48.806;9.140;2023-02-15T06:51:47;23.63;;;16.43;;
7497;SDS011;3790;48.806;9.140;2023-02-15T06:56:47;22.77;;;16.00;;
7497;SDS011;3790;48.806;9.140;2023-02-15T07:01:48;21.47;;;15.20;;
7497;SDS011;3790;48.806;9.140;2023-02-15T07:06:51;26.87;;;16.10;;
7497;SDS011;3790;48.806;9.140;2023-02-15T07:11:51;80.40;;;19.83;;
7497;SDS011;3790;48.806;9.140;2023-02-15T07:17:11;82.43;;;20.97;;
7497;SDS011;3790;48.806;9.140;2023-02-15T07:22:11;127.30;;;25.40;;
7497;SDS011;3790;48.806;9.140;2023-02-15T07:27:12;64.20;;;21.07;;
7497;SDS011;3790;48.806;9.140;2023-02-15T07:32:12;229.57;;;31.17;;
7497;SDS011;3790;48.806;9.140;2023-02-15T07:37:13;200.30;;;26.60;;
7497;SDS011;3790;48.806;9.140;2023-02-15T07:42:13;112.10;;;21.50;;
7497;SDS011;3790;48.806;9.140;2023-02-15T07:47:14;311.17;;;33.03;;
7497;SDS011;3790;48.806;9.140;2023-02-15T07:52:15;315.93;;;33.77;;
7497;SDS011;3790;48.806;9.140;2023-02-15T07:57:15;412.23;;;38.27;;
7497;SDS011;3790;48.806;9.140;2023-02-15T08:02:15;209.93;;;27.23;;
7497;SDS011;3790;48.806;9.140;2023-02-15T08:07:16;93.93;;;21.97;;
7497;SDS011;3790;48.806;9.140;2023-02-15T08:12:19;47.87;;;24.27;;
7497;SDS011;3790;48.806;9.140;2023-02-15T08:17:20;48.97;;;23.73;;
7497;SDS011;3790;48.806;9.140;2023-02-15T08:22:20;86.73;;;27.67;;
7497;SDS011;3790;48.806;9.140;2023-02-15T08:27:21;68.30;;;26.73;;
7497;SDS011;3790;48.806;9.140;2023-02-15T08:32:26;242.23;;;34.70;;
7497;SDS011;3790;48.806;9.140;2023-02-15T08:37:27;261.77;;;35.50;;
7497;SDS011;3790;48.806;9.140;2023-02-15T08:42:27;228.70;;;33.20;;
7497;SDS011;3790;48.806;9.140;2023-02-15T08:47:28;100.43;;;26.43;;
7497;SDS011;3790;48.806;9.140;2023-02-15T08:52:28;232.07;;;34.50;;
7497;SDS011;3790;48.806;9.140;2023-02-15T08:57:28;132.10;;;27.13;;
7497;SDS011;3790;48.806;9.140;2023-02-15T09:02:29;157.57;;;29.80;;
7497;SDS011;3790;48.806;9.140;2023-02-15T09:07:29;59.37;;;24.87;;
7497;SDS011;3790;48.806;9.140;2023-02-15T09:12:30;97.33;;;27.20;;
7497;SDS011;3790;48.806;9.140;2023-02-15T09:17:31;80.33;;;29.50;;
7497;SDS011;3790;48.806;9.140;2023-02-15T09:22:31;124.13;;;34.07;;
7497;SDS011;3790;48.806;9.140;2023-02-15T09:27:32;224.83;;;37.07;;
7497;SDS011;3790;48.806;9.140;2023-02-15T09:32:32;50.10;;;25.43;;
7497;SDS011;3790;48.806;9.140;2023-02-15T09:37:33;38.10;;;26.47;;
7497;SDS011;3790;48.806;9.140;2023-02-15T10:03:38;34.37;;;27.67;;
7497;SDS011;3790;48.806;9.140;2023-02-15T10:19:47;35.83;;;27.27;;
7497;SDS011;3790;48.806;9.140;2023-02-15T10:41:49;31.47;;;23.57;;
7497;SDS011;3790;48.806;9.140;2023-02-15T10:47:06;28.97;;;21.27;;
7497;SDS011;3790;48.806;9.140;2023-02-15T10:52:27;33.53;;;21.10;;
7497;SDS011;3790;48.806;9.140;2023-02-15T10:57:43;23.57;;;17.47;;
7497;SDS011;3790;48.806;9.140;2023-02-15T11:03:20;25.67;;;17.17;;
7497;SDS011;3790;48.806;9.140;2023-02-15T11:08:46;22.70;;;17.03;;
7497;SDS011;3790;48.806;9.140;2023-02-15T11:13:57;26.30;;;16.93;;
7497;SDS011;3790;48.806;9.140;2023-02-15T11:19:11;23.87;;;16.17;;
7497;SDS011;3790;48.806;9.140;2023-02-15T11:24:17;26.90;;;16.77;;
7497;SDS011;3790;48.806;9.140;2023-02-15T11:34:34;20.03;;;15.77;;
7497;SDS011;3790;48.806;9.140;2023-02-15T11:39:40;24.23;;;16.20;;
7497;SDS011;3790;48.806;9.140;2023-02-15T11:44:49;21.90;;;15.73;;
7497;SDS011;3790;48.806;9.140;2023-02-15T11:50:12;24.20;;;15.80;;
7497;SDS011;3790;48.806;9.140;2023-02-15T11:55:17;25.87;;;16.70;;
7497;SDS011;3790;48.806;9.140;2023-02-15T12:00:31;24.00;;;15.63;;
7497;SDS011;3790;48.806;9.140;2023-02-15T12:05:52;22.17;;;14.90;;
7497;SDS011;3790;48.806;9.140;2023-02-15T12:11:17;18.07;;;13.57;;
7497;SDS011;3790;48.806;9.140;2023-02-15T12:16:22;20.63;;;14.20;;
7497;SDS011;3790;48.806;9.140;2023-02-15T12:21:30;19.33;;;12.83;;
7497;SDS011;3790;48.806;9.140;2023-02-15T12:26:34;16.37;;;12.17;;
7497;SDS011;3790;48.806;9.140;2023-02-15T12:31:38;13.57;;;10.63;;
7497;SDS011;3790;48.806;9.140;2023-02-15T12:36:42;13.07;;;9.50;;
7497;SDS011;3790;48.806;9.140;2023-02-15T12:46:56;18.30;;;12.60;;
7497;SDS011;3790;48.806;9.140;2023-02-15T13:07:36;14.83;;;11.57;;
7497;SDS011;3790;48.806;9.140;2023-02-15T13:12:37;15.00;;;11.80;;
7497;SDS011;3790;48.806;9.140;2023-02-15T13:17:38;15.00;;;12.10;;
7497;SDS011;3790;48.806;9.140;2023-02-15T13:22:39;17.80;;;11.23;;
7497;SDS011;3790;48.806;9.140;2023-02-15T13:27:43;14.87;;;11.10;;
7497;SDS011;3790;48.806;9.140;2023-02-15T13:32:46;14.13;;;11.43;;
7497;SDS011;3790;48.806;9.140;2023-02-15T13:37:57;16.20;;;11.80;;
7497;SDS011;3790;48.806;9.140;2023-02-15T13:43:26;14.83;;;10.97;;
7497;SDS011;3790;48.806;9.140;2023-02-15T13:59:39;16.27;;;10.53;;
7497;SDS011;3790;48.806;9.140;2023-02-15T14:10:36;13.80;;;10.73;;
7497;SDS011;3790;48.806;9.140;2023-02-15T14:31:59;11.20;;;9.97;;
7497;SDS011;3790;48.806;9.140;2023-02-15T14:37:09;14.57;;;10.10;;
7497;SDS011;3790;48.806;9.140;2023-02-15T14:42:14;11.90;;;9.07;;
7497;SDS011;3790;48.806;9.140;2023-02-15T14:47:25;15.70;;;9.33;;
7497;SDS011;3790;48.806;9.140;2023-02-15T14:52:32;12.03;;;9.30;;
7497;SDS011;3790;48.806;9.140;2023-02-15T14:58:12;10.70;;;8.17;;
7497;SDS011;3790;48.806;9.140;2023-02-15T15:03:23;13.63;;;8.17;;
7497;SDS011;3790;48.806;9.140;2023-02-15T15:13:36;9.83;;;8.47;;
7497;SDS011;3790;48.806;9.140;2023-02-15T15:18:46;14.33;;;9.40;;
7497;SDS011;3790;48.806;9.140;2023-02-15T15:23:47;11.17;;;7.87;;
7497;SDS011;3790;48.806;9.140;2023-02-15T15:33:58;8.03;;;6.97;;
7497;SDS011;3790;48.806;9.140;2023-02-15T15:50:04;9.73;;;6.27;;
7497;SDS011;3790;48.806;9.140;2023-02-15T15:55:17;8.07;;;6.87;;
7497;SDS011;3790;48.806;9.140;2023-02-15T16:00:32;12.30;;;7.50;;
7497;SDS011;3790;48.806;9.140;2023-02-15T16:05:41;16.47;;;7.93;;
7497;SDS011;3790;48.806;9.140;2023-02-15T16:10:42;10.83;;;8.20;;
7497;SDS011;3790;48.806;9.140;2023-02-15T16:15:46;15.93;;;8.93;;
7497;SDS011;3790;48.806;9.140;2023-02-15T16:20:51;13.60;;;9.47;;
7497;SDS011;3790;48.806;9.140;2023-02-15T16:26:08;10.80;;;8.60;;
7497;SDS011;3790;48.806;9.140;2023-02-15T16:31:22;15.67;;;10.13;;
7497;SDS011;3790;48.806;9.140;2023-02-15T16:36:27;17.37;;;11.60;;
7497;SDS011;3790;48.806;9.140;2023-02-15T16:41:28;17.57;;;11.90;;
7497;SDS011;3790;48.806;9.140;2023-02-15T16:46:35;18.17;;;11.93;;
7497;SDS011;3790;48.806;9.140;2023-02-15T16:51:39;16.97;;;12.17;;
7497;SDS011;3790;48.806;9.140;2023-02-15T16:56:42;15.40;;;12.53;;
7497;SDS011;3790;48.806;9.140;2023-02-15T17:01:45;19.83;;;12.13;;
7497;SDS011;3790;48.806;9.140;2023-02-15T17:12:33;15.60;;;12.33;;
7497;SDS011;3790;48.806;9.140;2023-02-15T17:17:47;18.10;;;12.47;;
7497;SDS011;3790;48.806;9.140;2023-02-15T17:22:48;20.00;;;13.50;;
7497;SDS011;3790;48.806;9.140;2023-02-15T17:27:50;24.30;;;14.00;;
7497;SDS011;3790;48.806;9.140;2023-02-15T17:32:53;21.27;;;14.63;;
7497;SDS011;3790;48.806;9.140;2023-02-15T17:38:06;14.03;;;11.23;;
7497;SDS011;3790;48.806;9.140;2023-02-15T17:43:19;17.27;;;11.33;;
7497;SDS011;3790;48.806;9.140;2023-02-15T17:48:24;17.37;;;12.07;;
7497;SDS011;3790;48.806;9.140;2023-02-15T17:53:36;14.63;;;10.87;;
7497;SDS011;3790;48.806;9.140;2023-02-15T17:58:37;14.23;;;10.97;;
7497;SDS011;3790;48.806;9.140;2023-02-15T18:09:09;14.43;;;10.33;;
7497;SDS011;3790;48.806;9.140;2023-02-15T18:14:29;21.87;;;11.27;;
7497;SDS011;3790;48.806;9.140;2023-02-15T18:19:30;23.53;;;11.13;;
7497;SDS011;3790;48.806;9.140;2023-02-15T18:24:31;11.27;;;10.03;;
7497;SDS011;3790;48.806;9.140;2023-02-15T18:29:32;13.93;;;11.00;;
7497;SDS011;3790;48.806;9.140;2023-02-15T18:34:34;15.67;;;10.90;;
7497;SDS011;3790;48.806;9.140;2023-02-15T18:39:38;13.07;;;11.03;;
7497;SDS011;3790;48.806;9.140;2023-02-15T18:44:46;14.73;;;11.57;;
7497;SDS011;3790;48.806;9.140;2023-02-15T18:49:48;15.73;;;11.23;;
7497;SDS011;3790;48.806;9.140;2023-02-15T18:54:50;16.83;;;11.40;;
7497;SDS011;3790;48.806;9.140;2023-02-15T18:59:56;15.80;;;11.20;;
7497;SDS011;3790;48.806;9.140;2023-02-15T19:04:57;19.17;;;11.83;;
7497;SDS011;3790;48.806;9.140;2023-02-15T19:09:58;20.57;;;11.90;;
7497;SDS011;3790;48.806;9.140;2023-02-15T19:15:00;16.57;;;10.07;;
7497;SDS011;3790;48.806;9.140;2023-02-15T19:20:01;18.73;;;12.80;;
7497;SDS011;3790;48.806;9.140;2023-02-15T19:25:02;14.50;;;9.93;;
7497;SDS011;3790;48.806;9.140;2023-02-15T19:30:10;14.70;;;9.63;;
7497;SDS011;3790;48.806;9.140;2023-02-15T19:35:21;23.73;;;16.13;;
7497;SDS011;3790;48.806;9.140;2023-02-15T19:40:26;17.37;;;12.80;;
7497;SDS011;3790;48.806;9.140;2023-02-15T19:45:29;16.37;;;11.67;;
7497;SDS011;3790;48.806;9.140;2023-02-15T19:50:31;27.83;;;14.10;;
7497;SDS011;3790;48.806;9.140;2023-02-15T19:55:33;23.70;;;12.33;;
7497;SDS011;3790;48.806;9.140;2023-02-15T20:00:34;20.10;;;12.50;;
7497;SDS011;3790;48.806;9.140;2023-02-15T20:05:35;14.40;;;10.93;;
7497;SDS011;3790;48.806;9.140;2023-02-15T20:10:41;20.43;;;13.33;;
7497;SDS011;3790;48.806;9.140;2023-02-15T20:15:41;21.33;;;12.37;;
7497;SDS011;3790;48.806;9.140;2023-02-15T20:20:43;18.30;;;13.73;;
7497;SDS011;3790;48.806;9.140;2023-02-15T20:25:49;23.97;;;13.57;;
7497;SDS011;3790;48.806;9.140;2023-02-15T20:30:50;17.57;;;11.80;;
7497;SDS011;3790;48.806;9.140;2023-02-15T20:35:51;11.20;;;6.70;;
7497;SDS011;3790;48.806;9.140;2023-02-15T20:40:51;11.40;;;6.93;;
7497;SDS011;3790;48.806;9.140;2023-02-15T20:46:11;15.23;;;8.70;;
7497;SDS011;3790;48.806;9.140;2023-02-15T20:51:21;17.37;;;10.13;;
7497;SDS011;3790;48.806;9.140;2023-02-15T20:56:24;16.57;;;10.70;;
7497;SDS011;3790;48.806;9.140;2023-02-15T21:01:24;16.27;;;9.20;;
7497;SDS011;3790;48.806;9.140;2023-02-15T21:06:25;13.87;;;8.43;;
7497;SDS011;3790;48.806;9.140;2023-02-15T21:11:25;15.30;;;8.20;;
7497;SDS011;3790;48.806;9.140;2023-02-15T21:16:26;13.37;;;8.20;;
7497;SDS011;3790;48.806;9.140;2023-02-15T21:21:26;14.43;;;7.43;;
7497;SDS011;3790;48.806;9.140;2023-02-15T21:26:27;13.60;;;8.50;;
7497;SDS011;3790;48.806;9.140;2023-02-15T21:31:27;10.80;;;7.60;;
7497;SDS011;3790;48.806;9.140;2023-02-15T21:36:28;12.00;;;8.23;;
7497;SDS011;3790;48.806;9.140;2023-02-15T21:41:29;12.70;;;6.97;;
7497;SDS011;3790;48.806;9.140;2023-02-15T21:46:58;12.23;;;7.80;;
7497;SDS011;3790;48.806;9.140;2023-02-15T21:52:19;10.73;;;7.30;;
7497;SDS011;3790;48.806;9.140;2023-02-15T21:57:22;12.03;;;8.40;;
7497;SDS011;3790;48.806;9.140;2023-02-15T22:02:24;14.80;;;9.40;;
7497;SDS011;3790;48.806;9.140;2023-02-15T22:07:27;15.63;;;9.23;;
7497;SDS011;3790;48.806;9.140;2023-02-15T22:12:27;14.00;;;8.37;;
7497;SDS011;3790;48.806;9.140;2023-02-15T22:17:28;14.30;;;7.87;;
7497;SDS011;3790;48.806;9.140;2023-02-15T22:22:28;10.70;;;7.63;;
7497;SDS011;3790;48.806;9.140;2023-02-15T22:27:29;12.23;;;7.37;;
7497;SDS011;3790;48.806;9.140;2023-02-15T22:32:37;10.93;;;7.60;;
7497;SDS011;3790;48.806;9.140;2023-02-15T22:37:40;11.53;;;7.30;;
7497;SDS011;3790;48.806;9.140;2023-02-15T22:42:41;10.97;;;6.17;;
7497;SDS011;3790;48.806;9.140;2023-02-15T22:47:47;13.60;;;7.63;;
7497;SDS011;3790;48.806;9.140;2023-02-15T22:52:49;12.43;;;7.63;;
7497;SDS011;3790;48.806;9.140;2023-02-15T22:57:51;12.17;;;7.57;;
7497;SDS011;3790;48.806;9.140;2023-02-15T23:02:54;12.90;;;7.20;;
7497;SDS011;3790;48.806;9.140;2023-02-15T23:07:55;12.03;;;8.57;;
7497;SDS011;3790;48.806;9.140;2023-02-15T23:12:57;21.30;;;8.77;;
7497;SDS011;3790;48.806;9.140;2023-02-15T23:18:19;10.27;;;7.47;;
7497;SDS011;3790;48.806;9.140;2023-02-15T23:23:32;12.67;;;8.07;;
7497;SDS011;3790;48.806;9.140;2023-02-15T23:28:36;16.13;;;8.47;;
7497;SDS011;3790;48.806;9.140;2023-02-15T23:33:37;11.97;;;8.03;;
7497;SDS011;3790;48.806;9.140;2023-02-15T23:38:37;13.70;;;7.73;;
7497;SDS011;3790;48.806;9.140;2023-02-15T23:43:38;14.80;;;7.20;;
7497;SDS011;3790;48.806;9.140;2023-02-15T23:48:41;14.73;;;7.97;;
7497;SDS011;3790;48.806;9.140;2023-02-15T23:53:44;12.33;;;7.73;;
7497;SDS011;3790;48.806;9.140;2023-02-15T23:58:45;14.27;;;7.03;;
